sensor_id;sensor_type;location;lat;lon;timestamp;P1;durP1;ratioP1;P2;durP2;ratioP2
50531;SDS011;36483;37.396;-122.212;2022-12-07T00:00:53;5.63;;;3.03;;
50531;SDS011;36483;37.396;-122.212;2022-12-07T00:03:20;5.43;;;2.00;;
50531;SDS011;36483;37.396;-122.212;2022-12-07T00:05:46;3.42;;;1.27;;
50531;SDS011;36483;37.396;-122.212;2022-12-07T00:08:12;3.60;;;1.20;;
50531;SDS011;36483;37.396;-122.212;2022-12-07T00:10:38;4.07;;;1.52;;
50531;SDS011;36483;37.396;-122.212;2022-12-07T00:13:04;3.80;;;1.23;;
50531;SDS011;36483;37.396;-122.212;2022-12-07T00:15:30;3.10;;;1.20;;
50531;SDS011;36483;37.396;-122.212;2022-12-07T00:18:00;1.70;;;1.00;;
50531;SDS011;36483;37.396;-122.212;2022-12-07T00:20:26;2.30;;;1.25;;
50531;SDS011;36483;37.396;-122.212;2022-12-07T00:22:52;7.63;;;1.67;;
50531;SDS011;36483;37.396;-122.212;2022-12-07T00:25:18;2.35;;;1.30;;
50531;SDS011;36483;37.396;-122.212;2022-12-07T00:27:44;3.20;;;1.13;;
50531;SDS011;36483;37.396;-122.212;2022-12-07T00:30:10;3.78;;;1.13;;
50531;SDS011;36483;37.396;-122.212;2022-12-07T00:32:36;4.72;;;1.63;;
50531;SDS011;36483;37.396;-122.212;2022-12-07T00:35:02;2.30;;;1.10;;
50531;SDS011;36483;37.396;-122.212;2022-12-07T00:37:29;4.75;;;1.42;;
50531;SDS011;36483;37.396;-122.212;2022-12-07T00:39:55;3.67;;;1.27;;
50531;SDS011;36483;37.396;-122.212;2022-12-07T00:42:21;6.18;;;1.73;;
50531;SDS011;36483;37.396;-122.212;2022-12-07T00:44:47;4.05;;;1.40;;
50531;SDS011;36483;37.396;-122.212;2022-12-07T00:47:13;2.20;;;1.05;;
50531;SDS011;36483;37.396;-122.212;2022-12-07T00:49:39;5.60;;;2.00;;
50531;SDS011;36483;37.396;-122.212;2022-12-07T00:52:05;10.65;;;1.67;;
50531;SDS011;36483;37.396;-122.212;2022-12-07T00:54:32;3.70;;;1.60;;
50531;SDS011;36483;37.396;-122.212;2022-12-07T00:56:58;6.20;;;1.45;;
50531;SDS011;36483;37.396;-122.212;2022-12-07T00:59:24;8.45;;;1.70;;
50531;SDS011;36483;37.396;-122.212;2022-12-07T01:01:50;3.97;;;1.33;;
50531;SDS011;36483;37.396;-122.212;2022-12-07T01:04:16;3.53;;;1.35;;
50531;SDS011;36483;37.396;-122.212;2022-12-07T01:06:42;3.42;;;1.08;;
50531;SDS011;36483;37.396;-122.212;2022-12-07T01:09:09;1.95;;;1.27;;
50531;SDS011;36483;37.396;-122.212;2022-12-07T01:11:35;3.75;;;1.15;;
50531;SDS011;36483;37.396;-122.212;2022-12-07T01:14:01;5.25;;;1.33;;
50531;SDS011;36483;37.396;-122.212;2022-12-07T01:16:28;1.80;;;1.25;;
50531;SDS011;36483;37.396;-122.212;2022-12-07T01:18:56;2.50;;;1.30;;
50531;SDS011;36483;37.396;-122.212;2022-12-07T01:21:24;5.60;;;1.23;;
50531;SDS011;36483;37.396;-122.212;2022-12-07T01:23:52;5.13;;;1.27;;
50531;SDS011;36483;37.396;-122.212;2022-12-07T01:26:19;3.22;;;1.20;;
50531;SDS011;36483;37.396;-122.212;2022-12-07T01:28:47;4.13;;;1.30;;
50531;SDS011;36483;37.396;-122.212;2022-12-07T01:31:15;3.25;;;1.52;;
50531;SDS011;36483;37.396;-122.212;2022-12-07T01:33:46;3.13;;;1.30;;
50531;SDS011;36483;37.396;-122.212;2022-12-07T01:36:21;4.90;;;1.75;;
50531;SDS011;36483;37.396;-122.212;2022-12-07T01:38:55;2.90;;;1.48;;
50531;SDS011;36483;37.396;-122.212;2022-12-07T01:41:23;4.97;;;1.60;;
50531;SDS011;36483;37.396;-122.212;2022-12-07T01:44:10;6.07;;;1.70;;
50531;SDS011;36483;37.396;-122.212;2022-12-07T01:46:51;4.82;;;1.60;;
50531;SDS011;36483;37.396;-122.212;2022-12-07T01:49:37;4.43;;;1.63;;
50531;SDS011;36483;37.396;-122.212;2022-12-07T01:54:55;3.78;;;1.80;;
50531;SDS011;36483;37.396;-122.212;2022-12-07T01:57:33;2.40;;;1.42;;
50531;SDS011;36483;37.396;-122.212;2022-12-07T02:00:01;4.15;;;1.38;;
50531;SDS011;36483;37.396;-122.212;2022-12-07T02:02:33;5.40;;;1.88;;
50531;SDS011;36483;37.396;-122.212;2022-12-07T02:05:01;4.65;;;1.65;;
50531;SDS011;36483;37.396;-122.212;2022-12-07T02:07:29;5.07;;;1.50;;
50531;SDS011;36483;37.396;-122.212;2022-12-07T02:09:55;4.47;;;1.63;;
50531;SDS011;36483;37.396;-122.212;2022-12-07T02:12:22;5.57;;;1.83;;
50531;SDS011;36483;37.396;-122.212;2022-12-07T02:14:48;5.32;;;1.58;;
50531;SDS011;36483;37.396;-122.212;2022-12-07T02:17:28;5.35;;;1.50;;
50531;SDS011;36483;37.396;-122.212;2022-12-07T02:29:03;4.68;;;1.83;;
50531;SDS011;36483;37.396;-122.212;2022-12-07T02:32:20;5.05;;;1.80;;
50531;SDS011;36483;37.396;-122.212;2022-12-07T02:34:55;4.85;;;2.35;;
50531;SDS011;36483;37.396;-122.212;2022-12-07T02:42:58;4.15;;;2.83;;
50531;SDS011;36483;37.396;-122.212;2022-12-07T02:45:30;5.60;;;3.30;;
50531;SDS011;36483;37.396;-122.212;2022-12-07T02:47:58;5.53;;;3.00;;
50531;SDS011;36483;37.396;-122.212;2022-12-07T02:50:25;7.90;;;3.08;;
50531;SDS011;36483;37.396;-122.212;2022-12-07T02:52:52;4.78;;;2.83;;
50531;SDS011;36483;37.396;-122.212;2022-12-07T02:55:19;6.00;;;3.08;;
50531;SDS011;36483;37.396;-122.212;2022-12-07T03:00:20;4.78;;;2.88;;
50531;SDS011;36483;37.396;-122.212;2022-12-07T03:02:58;5.60;;;3.40;;
50531;SDS011;36483;37.396;-122.212;2022-12-07T03:08:22;8.65;;;4.13;;
50531;SDS011;36483;37.396;-122.212;2022-12-07T03:11:13;6.45;;;4.20;;
50531;SDS011;36483;37.396;-122.212;2022-12-07T03:19:10;5.70;;;3.90;;
50531;SDS011;36483;37.396;-122.212;2022-12-07T03:21:43;8.20;;;4.80;;
50531;SDS011;36483;37.396;-122.212;2022-12-07T03:24:13;7.05;;;4.90;;
50531;SDS011;36483;37.396;-122.212;2022-12-07T03:26:42;9.10;;;4.95;;
50531;SDS011;36483;37.396;-122.212;2022-12-07T03:29:14;7.35;;;4.72;;
50531;SDS011;36483;37.396;-122.212;2022-12-07T03:31:46;9.20;;;5.00;;
50531;SDS011;36483;37.396;-122.212;2022-12-07T03:34:15;6.18;;;4.20;;
50531;SDS011;36483;37.396;-122.212;2022-12-07T03:37:09;6.22;;;3.72;;
50531;SDS011;36483;37.396;-122.212;2022-12-07T03:42:34;6.03;;;3.30;;
50531;SDS011;36483;37.396;-122.212;2022-12-07T03:45:01;4.72;;;3.38;;
50531;SDS011;36483;37.396;-122.212;2022-12-07T03:50:15;5.10;;;3.30;;
50531;SDS011;36483;37.396;-122.212;2022-12-07T03:52:58;4.70;;;3.05;;
50531;SDS011;36483;37.396;-122.212;2022-12-07T03:55:48;5.07;;;3.15;;
50531;SDS011;36483;37.396;-122.212;2022-12-07T03:58:15;4.65;;;2.80;;
50531;SDS011;36483;37.396;-122.212;2022-12-07T04:00:43;4.97;;;3.00;;
50531;SDS011;36483;37.396;-122.212;2022-12-07T04:03:10;5.03;;;3.33;;
50531;SDS011;36483;37.396;-122.212;2022-12-07T04:05:36;3.47;;;3.17;;
50531;SDS011;36483;37.396;-122.212;2022-12-07T04:08:03;5.90;;;2.90;;
50531;SDS011;36483;37.396;-122.212;2022-12-07T04:10:29;4.78;;;2.85;;
50531;SDS011;36483;37.396;-122.212;2022-12-07T04:12:56;5.60;;;2.67;;
50531;SDS011;36483;37.396;-122.212;2022-12-07T04:15:22;6.05;;;2.63;;
50531;SDS011;36483;37.396;-122.212;2022-12-07T04:17:48;4.80;;;3.33;;
50531;SDS011;36483;37.396;-122.212;2022-12-07T04:20:14;4.70;;;2.83;;
50531;SDS011;36483;37.396;-122.212;2022-12-07T04:22:40;5.55;;;2.70;;
50531;SDS011;36483;37.396;-122.212;2022-12-07T04:25:06;4.70;;;2.75;;
50531;SDS011;36483;37.396;-122.212;2022-12-07T04:27:32;6.80;;;3.10;;
50531;SDS011;36483;37.396;-122.212;2022-12-07T04:30:19;5.72;;;2.72;;
50531;SDS011;36483;37.396;-122.212;2022-12-07T04:32:45;6.30;;;2.90;;
50531;SDS011;36483;37.396;-122.212;2022-12-07T04:35:11;5.00;;;2.83;;
50531;SDS011;36483;37.396;-122.212;2022-12-07T04:37:37;3.75;;;2.80;;
50531;SDS011;36483;37.396;-122.212;2022-12-07T04:40:06;4.72;;;2.75;;
50531;SDS011;36483;37.396;-122.212;2022-12-07T04:42:33;5.18;;;3.13;;
50531;SDS011;36483;37.396;-122.212;2022-12-07T04:44:59;4.40;;;2.55;;
50531;SDS011;36483;37.396;-122.212;2022-12-07T04:47:25;3.35;;;2.70;;
50531;SDS011;36483;37.396;-122.212;2022-12-07T04:49:52;5.78;;;2.90;;
50531;SDS011;36483;37.396;-122.212;2022-12-07T04:52:18;5.47;;;2.67;;
50531;SDS011;36483;37.396;-122.212;2022-12-07T04:54:44;3.97;;;2.67;;
50531;SDS011;36483;37.396;-122.212;2022-12-07T04:57:10;3.30;;;2.38;;
50531;SDS011;36483;37.396;-122.212;2022-12-07T04:59:36;5.78;;;2.75;;
50531;SDS011;36483;37.396;-122.212;2022-12-07T05:02:02;3.70;;;2.40;;
50531;SDS011;36483;37.396;-122.212;2022-12-07T05:04:28;5.22;;;2.70;;
50531;SDS011;36483;37.396;-122.212;2022-12-07T05:06:54;4.25;;;2.60;;
50531;SDS011;36483;37.396;-122.212;2022-12-07T05:09:20;3.80;;;2.55;;
50531;SDS011;36483;37.396;-122.212;2022-12-07T05:11:47;4.35;;;2.80;;
50531;SDS011;36483;37.396;-122.212;2022-12-07T05:14:14;3.95;;;2.90;;
50531;SDS011;36483;37.396;-122.212;2022-12-07T05:16:42;8.00;;;3.05;;
50531;SDS011;36483;37.396;-122.212;2022-12-07T05:19:09;6.93;;;2.83;;
50531;SDS011;36483;37.396;-122.212;2022-12-07T05:21:35;5.25;;;2.75;;
50531;SDS011;36483;37.396;-122.212;2022-12-07T05:24:02;6.63;;;2.58;;
50531;SDS011;36483;37.396;-122.212;2022-12-07T05:26:29;4.65;;;2.53;;
50531;SDS011;36483;37.396;-122.212;2022-12-07T05:28:56;3.85;;;2.78;;
50531;SDS011;36483;37.396;-122.212;2022-12-07T05:31:22;5.57;;;2.63;;
50531;SDS011;36483;37.396;-122.212;2022-12-07T05:33:49;4.82;;;2.50;;
50531;SDS011;36483;37.396;-122.212;2022-12-07T05:36:15;5.95;;;2.35;;
50531;SDS011;36483;37.396;-122.212;2022-12-07T05:38:42;3.53;;;2.45;;
50531;SDS011;36483;37.396;-122.212;2022-12-07T05:41:08;5.90;;;2.20;;
50531;SDS011;36483;37.396;-122.212;2022-12-07T05:43:57;7.57;;;2.80;;
50531;SDS011;36483;37.396;-122.212;2022-12-07T05:46:23;4.90;;;2.83;;
50531;SDS011;36483;37.396;-122.212;2022-12-07T05:48:49;4.55;;;2.22;;
50531;SDS011;36483;37.396;-122.212;2022-12-07T05:51:16;5.80;;;2.42;;
50531;SDS011;36483;37.396;-122.212;2022-12-07T05:53:42;5.85;;;2.28;;
50531;SDS011;36483;37.396;-122.212;2022-12-07T05:56:08;4.65;;;2.17;;
50531;SDS011;36483;37.396;-122.212;2022-12-07T05:58:34;8.73;;;2.33;;
50531;SDS011;36483;37.396;-122.212;2022-12-07T06:01:18;5.53;;;2.10;;
50531;SDS011;36483;37.396;-122.212;2022-12-07T06:03:45;4.22;;;2.28;;
50531;SDS011;36483;37.396;-122.212;2022-12-07T06:06:11;4.65;;;2.45;;
50531;SDS011;36483;37.396;-122.212;2022-12-07T06:08:37;3.72;;;2.05;;
50531;SDS011;36483;37.396;-122.212;2022-12-07T06:11:03;2.50;;;2.00;;
50531;SDS011;36483;37.396;-122.212;2022-12-07T06:13:47;3.45;;;2.28;;
50531;SDS011;36483;37.396;-122.212;2022-12-07T06:16:13;4.47;;;2.35;;
50531;SDS011;36483;37.396;-122.212;2022-12-07T06:18:40;5.60;;;2.47;;
50531;SDS011;36483;37.396;-122.212;2022-12-07T06:21:06;2.88;;;2.20;;
50531;SDS011;36483;37.396;-122.212;2022-12-07T06:23:32;2.78;;;2.28;;
50531;SDS011;36483;37.396;-122.212;2022-12-07T06:25:58;4.75;;;2.50;;
50531;SDS011;36483;37.396;-122.212;2022-12-07T06:28:24;4.45;;;2.20;;
50531;SDS011;36483;37.396;-122.212;2022-12-07T06:30:57;3.25;;;2.30;;
50531;SDS011;36483;37.396;-122.212;2022-12-07T06:33:24;4.18;;;2.40;;
50531;SDS011;36483;37.396;-122.212;2022-12-07T06:35:50;4.18;;;2.17;;
50531;SDS011;36483;37.396;-122.212;2022-12-07T06:38:16;4.03;;;2.25;;
50531;SDS011;36483;37.396;-122.212;2022-12-07T06:40:43;3.38;;;2.30;;
50531;SDS011;36483;37.396;-122.212;2022-12-07T06:43:09;3.28;;;2.20;;
50531;SDS011;36483;37.396;-122.212;2022-12-07T06:45:35;6.03;;;2.25;;
50531;SDS011;36483;37.396;-122.212;2022-12-07T06:48:01;3.88;;;2.28;;
50531;SDS011;36483;37.396;-122.212;2022-12-07T06:50:27;3.67;;;2.30;;
50531;SDS011;36483;37.396;-122.212;2022-12-07T06:52:53;3.35;;;2.00;;
50531;SDS011;36483;37.396;-122.212;2022-12-07T06:55:19;3.17;;;2.20;;
50531;SDS011;36483;37.396;-122.212;2022-12-07T06:57:45;5.35;;;2.20;;
50531;SDS011;36483;37.396;-122.212;2022-12-07T07:00:12;5.03;;;2.53;;
50531;SDS011;36483;37.396;-122.212;2022-12-07T07:02:39;5.05;;;2.10;;
50531;SDS011;36483;37.396;-122.212;2022-12-07T07:05:05;4.13;;;2.33;;
50531;SDS011;36483;37.396;-122.212;2022-12-07T07:07:31;3.38;;;2.13;;
50531;SDS011;36483;37.396;-122.212;2022-12-07T07:09:57;4.10;;;2.28;;
50531;SDS011;36483;37.396;-122.212;2022-12-07T07:12:23;4.18;;;2.30;;
50531;SDS011;36483;37.396;-122.212;2022-12-07T07:14:50;3.97;;;1.95;;
50531;SDS011;36483;37.396;-122.212;2022-12-07T07:17:16;5.05;;;2.30;;
50531;SDS011;36483;37.396;-122.212;2022-12-07T07:19:42;5.20;;;2.47;;
50531;SDS011;36483;37.396;-122.212;2022-12-07T07:22:08;6.47;;;2.30;;
50531;SDS011;36483;37.396;-122.212;2022-12-07T07:24:34;4.97;;;2.67;;
50531;SDS011;36483;37.396;-122.212;2022-12-07T07:27:00;4.68;;;2.50;;
50531;SDS011;36483;37.396;-122.212;2022-12-07T07:29:26;6.25;;;2.97;;
50531;SDS011;36483;37.396;-122.212;2022-12-07T07:31:52;4.85;;;2.90;;
50531;SDS011;36483;37.396;-122.212;2022-12-07T07:34:19;6.35;;;3.20;;
50531;SDS011;36483;37.396;-122.212;2022-12-07T07:36:45;6.22;;;3.17;;
50531;SDS011;36483;37.396;-122.212;2022-12-07T07:39:11;5.35;;;3.00;;
50531;SDS011;36483;37.396;-122.212;2022-12-07T07:41:38;4.78;;;3.50;;
50531;SDS011;36483;37.396;-122.212;2022-12-07T07:44:04;4.10;;;3.20;;
50531;SDS011;36483;37.396;-122.212;2022-12-07T07:46:30;4.50;;;3.10;;
50531;SDS011;36483;37.396;-122.212;2022-12-07T07:48:58;7.30;;;3.30;;
50531;SDS011;36483;37.396;-122.212;2022-12-07T07:54:08;5.10;;;3.22;;
50531;SDS011;36483;37.396;-122.212;2022-12-07T07:56:34;8.88;;;3.55;;
50531;SDS011;36483;37.396;-122.212;2022-12-07T07:59:00;6.13;;;3.70;;
50531;SDS011;36483;37.396;-122.212;2022-12-07T08:01:26;6.63;;;3.30;;
50531;SDS011;36483;37.396;-122.212;2022-12-07T08:03:53;6.63;;;3.22;;
50531;SDS011;36483;37.396;-122.212;2022-12-07T08:06:19;4.25;;;3.08;;
50531;SDS011;36483;37.396;-122.212;2022-12-07T08:08:45;4.45;;;3.50;;
50531;SDS011;36483;37.396;-122.212;2022-12-07T08:11:11;5.13;;;3.20;;
50531;SDS011;36483;37.396;-122.212;2022-12-07T08:13:37;5.05;;;2.80;;
50531;SDS011;36483;37.396;-122.212;2022-12-07T08:16:04;3.47;;;2.75;;
50531;SDS011;36483;37.396;-122.212;2022-12-07T08:18:34;6.43;;;2.70;;
50531;SDS011;36483;37.396;-122.212;2022-12-07T08:21:02;2.47;;;1.92;;
50531;SDS011;36483;37.396;-122.212;2022-12-07T08:23:29;4.43;;;2.35;;
50531;SDS011;36483;37.396;-122.212;2022-12-07T08:25:59;3.95;;;1.98;;
50531;SDS011;36483;37.396;-122.212;2022-12-07T08:28:26;3.65;;;2.40;;
50531;SDS011;36483;37.396;-122.212;2022-12-07T08:30:58;5.63;;;2.42;;
50531;SDS011;36483;37.396;-122.212;2022-12-07T08:33:53;5.60;;;2.00;;
50531;SDS011;36483;37.396;-122.212;2022-12-07T08:36:20;3.25;;;1.95;;
50531;SDS011;36483;37.396;-122.212;2022-12-07T08:38:48;3.53;;;1.88;;
50531;SDS011;36483;37.396;-122.212;2022-12-07T08:41:14;4.85;;;2.08;;
50531;SDS011;36483;37.396;-122.212;2022-12-07T08:43:41;3.88;;;1.70;;
50531;SDS011;36483;37.396;-122.212;2022-12-07T08:46:21;3.28;;;1.60;;
50531;SDS011;36483;37.396;-122.212;2022-12-07T08:48:53;3.75;;;1.75;;
50531;SDS011;36483;37.396;-122.212;2022-12-07T08:51:22;3.08;;;1.98;;
50531;SDS011;36483;37.396;-122.212;2022-12-07T08:53:49;4.60;;;2.00;;
50531;SDS011;36483;37.396;-122.212;2022-12-07T08:56:15;4.53;;;1.83;;
50531;SDS011;36483;37.396;-122.212;2022-12-07T08:58:42;4.18;;;1.52;;
50531;SDS011;36483;37.396;-122.212;2022-12-07T09:01:08;2.45;;;1.50;;
50531;SDS011;36483;37.396;-122.212;2022-12-07T09:03:34;3.17;;;1.52;;
50531;SDS011;36483;37.396;-122.212;2022-12-07T09:06:00;3.78;;;1.73;;
50531;SDS011;36483;37.396;-122.212;2022-12-07T09:08:31;3.42;;;1.80;;
50531;SDS011;36483;37.396;-122.212;2022-12-07T09:11:00;3.70;;;1.80;;
50531;SDS011;36483;37.396;-122.212;2022-12-07T09:13:26;2.65;;;1.60;;
50531;SDS011;36483;37.396;-122.212;2022-12-07T09:15:52;2.72;;;1.40;;
50531;SDS011;36483;37.396;-122.212;2022-12-07T09:18:18;2.60;;;1.60;;
50531;SDS011;36483;37.396;-122.212;2022-12-07T09:20:45;4.20;;;1.55;;
50531;SDS011;36483;37.396;-122.212;2022-12-07T09:23:11;3.45;;;1.58;;
50531;SDS011;36483;37.396;-122.212;2022-12-07T09:25:37;3.35;;;1.67;;
50531;SDS011;36483;37.396;-122.212;2022-12-07T09:28:03;2.85;;;1.70;;
50531;SDS011;36483;37.396;-122.212;2022-12-07T09:30:29;3.17;;;1.80;;
50531;SDS011;36483;37.396;-122.212;2022-12-07T09:32:56;2.45;;;1.60;;
50531;SDS011;36483;37.396;-122.212;2022-12-07T09:35:22;4.18;;;1.70;;
50531;SDS011;36483;37.396;-122.212;2022-12-07T09:37:49;2.97;;;1.90;;
50531;SDS011;36483;37.396;-122.212;2022-12-07T09:40:16;4.53;;;2.08;;
50531;SDS011;36483;37.396;-122.212;2022-12-07T09:42:44;4.28;;;1.55;;
50531;SDS011;36483;37.396;-122.212;2022-12-07T09:45:18;4.43;;;1.60;;
50531;SDS011;36483;37.396;-122.212;2022-12-07T09:48:04;4.78;;;1.60;;
50531;SDS011;36483;37.396;-122.212;2022-12-07T09:50:30;5.15;;;1.65;;
50531;SDS011;36483;37.396;-122.212;2022-12-07T09:53:08;3.95;;;1.77;;
50531;SDS011;36483;37.396;-122.212;2022-12-07T09:55:36;3.13;;;1.63;;
50531;SDS011;36483;37.396;-122.212;2022-12-07T09:58:03;2.83;;;1.50;;
50531;SDS011;36483;37.396;-122.212;2022-12-07T10:00:29;4.30;;;1.77;;
50531;SDS011;36483;37.396;-122.212;2022-12-07T10:02:57;4.97;;;1.85;;
50531;SDS011;36483;37.396;-122.212;2022-12-07T10:05:57;3.25;;;1.65;;
50531;SDS011;36483;37.396;-122.212;2022-12-07T10:08:17;3.15;;;1.80;;
50531;SDS011;36483;37.396;-122.212;2022-12-07T10:10:44;3.92;;;1.40;;
50531;SDS011;36483;37.396;-122.212;2022-12-07T10:13:12;4.82;;;1.67;;
50531;SDS011;36483;37.396;-122.212;2022-12-07T10:18:25;2.45;;;1.40;;
50531;SDS011;36483;37.396;-122.212;2022-12-07T10:21:08;2.20;;;1.60;;
50531;SDS011;36483;37.396;-122.212;2022-12-07T10:23:39;2.72;;;1.67;;
50531;SDS011;36483;37.396;-122.212;2022-12-07T10:26:19;3.33;;;1.77;;
50531;SDS011;36483;37.396;-122.212;2022-12-07T10:28:54;3.95;;;1.48;;
50531;SDS011;36483;37.396;-122.212;2022-12-07T10:31:21;3.35;;;1.60;;
50531;SDS011;36483;37.396;-122.212;2022-12-07T10:33:49;3.15;;;1.60;;
50531;SDS011;36483;37.396;-122.212;2022-12-07T10:36:18;3.10;;;1.73;;
50531;SDS011;36483;37.396;-122.212;2022-12-07T10:38:48;2.70;;;1.70;;
50531;SDS011;36483;37.396;-122.212;2022-12-07T10:41:19;4.20;;;1.73;;
50531;SDS011;36483;37.396;-122.212;2022-12-07T10:43:55;2.22;;;1.40;;
50531;SDS011;36483;37.396;-122.212;2022-12-07T10:52:22;2.40;;;1.50;;
50531;SDS011;36483;37.396;-122.212;2022-12-07T11:00:45;2.83;;;1.60;;
50531;SDS011;36483;37.396;-122.212;2022-12-07T11:03:25;4.30;;;1.40;;
50531;SDS011;36483;37.396;-122.212;2022-12-07T11:06:19;3.88;;;2.00;;
50531;SDS011;36483;37.396;-122.212;2022-12-07T11:09:34;2.28;;;1.40;;
50531;SDS011;36483;37.396;-122.212;2022-12-07T11:12:12;2.35;;;1.65;;
50531;SDS011;36483;37.396;-122.212;2022-12-07T11:14:54;2.88;;;1.50;;
50531;SDS011;36483;37.396;-122.212;2022-12-07T11:17:32;3.65;;;1.60;;
50531;SDS011;36483;37.396;-122.212;2022-12-07T11:25:18;3.50;;;1.88;;
50531;SDS011;36483;37.396;-122.212;2022-12-07T11:33:52;4.88;;;1.88;;
50531;SDS011;36483;37.396;-122.212;2022-12-07T11:36:48;2.83;;;1.50;;
50531;SDS011;36483;37.396;-122.212;2022-12-07T11:39:21;4.82;;;1.52;;
50531;SDS011;36483;37.396;-122.212;2022-12-07T11:42:14;2.00;;;1.30;;
50531;SDS011;36483;37.396;-122.212;2022-12-07T11:47:10;4.65;;;1.40;;
50531;SDS011;36483;37.396;-122.212;2022-12-07T11:49:53;2.53;;;1.55;;
50531;SDS011;36483;37.396;-122.212;2022-12-07T11:54:58;2.13;;;1.33;;
50531;SDS011;36483;37.396;-122.212;2022-12-07T11:57:32;2.85;;;1.70;;
50531;SDS011;36483;37.396;-122.212;2022-12-07T12:00:04;3.42;;;1.40;;
50531;SDS011;36483;37.396;-122.212;2022-12-07T12:02:41;2.13;;;1.35;;
50531;SDS011;36483;37.396;-122.212;2022-12-07T12:05:21;5.55;;;1.65;;
50531;SDS011;36483;37.396;-122.212;2022-12-07T12:10:47;2.90;;;1.30;;
50531;SDS011;36483;37.396;-122.212;2022-12-07T12:19:37;2.47;;;1.30;;
50531;SDS011;36483;37.396;-122.212;2022-12-07T12:22:27;3.65;;;1.48;;
50531;SDS011;36483;37.396;-122.212;2022-12-07T12:24:58;3.85;;;1.42;;
50531;SDS011;36483;37.396;-122.212;2022-12-07T12:27:26;3.45;;;1.50;;
50531;SDS011;36483;37.396;-122.212;2022-12-07T12:29:55;3.92;;;1.60;;
50531;SDS011;36483;37.396;-122.212;2022-12-07T12:32:40;3.72;;;1.50;;
50531;SDS011;36483;37.396;-122.212;2022-12-07T12:37:49;2.42;;;1.58;;
50531;SDS011;36483;37.396;-122.212;2022-12-07T12:42:53;3.03;;;1.52;;
50531;SDS011;36483;37.396;-122.212;2022-12-07T12:47:55;2.30;;;1.38;;
50531;SDS011;36483;37.396;-122.212;2022-12-07T12:50:29;3.88;;;1.58;;
50531;SDS011;36483;37.396;-122.212;2022-12-07T12:52:58;1.85;;;1.35;;
50531;SDS011;36483;37.396;-122.212;2022-12-07T13:00:46;2.55;;;1.52;;
50531;SDS011;36483;37.396;-122.212;2022-12-07T13:03:24;2.15;;;1.38;;
50531;SDS011;36483;37.396;-122.212;2022-12-07T13:08:50;3.10;;;1.80;;
50531;SDS011;36483;37.396;-122.212;2022-12-07T13:11:25;3.22;;;1.60;;
50531;SDS011;36483;37.396;-122.212;2022-12-07T13:16:59;3.15;;;1.55;;
50531;SDS011;36483;37.396;-122.212;2022-12-07T13:27:29;2.47;;;1.35;;
50531;SDS011;36483;37.396;-122.212;2022-12-07T13:29:56;3.67;;;1.50;;
50531;SDS011;36483;37.396;-122.212;2022-12-07T13:32:26;3.83;;;1.60;;
50531;SDS011;36483;37.396;-122.212;2022-12-07T13:34:53;6.18;;;1.60;;
50531;SDS011;36483;37.396;-122.212;2022-12-07T13:37:21;2.15;;;1.30;;
50531;SDS011;36483;37.396;-122.212;2022-12-07T13:42:28;4.63;;;1.60;;
50531;SDS011;36483;37.396;-122.212;2022-12-07T13:44:56;2.80;;;1.50;;
50531;SDS011;36483;37.396;-122.212;2022-12-07T13:49:50;3.33;;;1.60;;
50531;SDS011;36483;37.396;-122.212;2022-12-07T13:52:23;3.47;;;1.60;;
50531;SDS011;36483;37.396;-122.212;2022-12-07T13:57:28;3.67;;;1.50;;
50531;SDS011;36483;37.396;-122.212;2022-12-07T14:00:00;3.40;;;1.67;;
50531;SDS011;36483;37.396;-122.212;2022-12-07T14:02:28;2.30;;;1.42;;
50531;SDS011;36483;37.396;-122.212;2022-12-07T14:05:07;5.45;;;1.63;;
50531;SDS011;36483;37.396;-122.212;2022-12-07T14:15:49;4.03;;;1.63;;
50531;SDS011;36483;37.396;-122.212;2022-12-07T14:18:27;3.15;;;1.65;;
50531;SDS011;36483;37.396;-122.212;2022-12-07T14:21:14;6.00;;;1.73;;
50531;SDS011;36483;37.396;-122.212;2022-12-07T14:23:42;2.47;;;1.50;;
50531;SDS011;36483;37.396;-122.212;2022-12-07T14:28:42;3.22;;;1.73;;
50531;SDS011;36483;37.396;-122.212;2022-12-07T14:31:13;3.17;;;1.88;;
50531;SDS011;36483;37.396;-122.212;2022-12-07T14:33:43;3.97;;;2.15;;
50531;SDS011;36483;37.396;-122.212;2022-12-07T14:36:13;2.85;;;1.80;;
50531;SDS011;36483;37.396;-122.212;2022-12-07T14:38:40;3.92;;;1.90;;
50531;SDS011;36483;37.396;-122.212;2022-12-07T14:41:10;4.18;;;2.00;;
50531;SDS011;36483;37.396;-122.212;2022-12-07T14:43:57;3.65;;;2.10;;
50531;SDS011;36483;37.396;-122.212;2022-12-07T14:46:23;5.20;;;2.75;;
50531;SDS011;36483;37.396;-122.212;2022-12-07T14:48:49;3.35;;;2.22;;
50531;SDS011;36483;37.396;-122.212;2022-12-07T14:51:16;3.85;;;2.45;;
50531;SDS011;36483;37.396;-122.212;2022-12-07T14:53:48;2.80;;;2.10;;
50531;SDS011;36483;37.396;-122.212;2022-12-07T14:56:15;4.05;;;2.25;;
50531;SDS011;36483;37.396;-122.212;2022-12-07T14:58:42;2.95;;;1.83;;
50531;SDS011;36483;37.396;-122.212;2022-12-07T15:01:08;2.97;;;1.92;;
50531;SDS011;36483;37.396;-122.212;2022-12-07T15:03:34;2.88;;;2.08;;
50531;SDS011;36483;37.396;-122.212;2022-12-07T15:06:03;5.95;;;2.35;;
50531;SDS011;36483;37.396;-122.212;2022-12-07T15:08:30;3.55;;;1.95;;
50531;SDS011;36483;37.396;-122.212;2022-12-07T15:10:56;5.80;;;2.60;;
50531;SDS011;36483;37.396;-122.212;2022-12-07T15:13:22;3.58;;;2.60;;
50531;SDS011;36483;37.396;-122.212;2022-12-07T15:16:09;3.45;;;1.95;;
50531;SDS011;36483;37.396;-122.212;2022-12-07T15:18:37;2.22;;;1.80;;
50531;SDS011;36483;37.396;-122.212;2022-12-07T15:21:03;4.78;;;2.17;;
50531;SDS011;36483;37.396;-122.212;2022-12-07T15:23:29;4.30;;;1.75;;
50531;SDS011;36483;37.396;-122.212;2022-12-07T15:25:56;4.15;;;1.98;;
50531;SDS011;36483;37.396;-122.212;2022-12-07T15:28:22;3.35;;;2.08;;
50531;SDS011;36483;37.396;-122.212;2022-12-07T15:30:48;4.07;;;1.80;;
50531;SDS011;36483;37.396;-122.212;2022-12-07T15:33:14;2.58;;;1.65;;
50531;SDS011;36483;37.396;-122.212;2022-12-07T15:35:41;3.90;;;2.15;;
50531;SDS011;36483;37.396;-122.212;2022-12-07T15:38:08;5.90;;;2.17;;
50531;SDS011;36483;37.396;-122.212;2022-12-07T15:40:34;3.55;;;2.35;;
50531;SDS011;36483;37.396;-122.212;2022-12-07T15:43:01;2.97;;;1.90;;
50531;SDS011;36483;37.396;-122.212;2022-12-07T15:45:27;3.20;;;2.00;;
50531;SDS011;36483;37.396;-122.212;2022-12-07T15:47:53;3.60;;;2.00;;
50531;SDS011;36483;37.396;-122.212;2022-12-07T15:50:20;4.97;;;2.30;;
50531;SDS011;36483;37.396;-122.212;2022-12-07T15:52:47;3.45;;;2.30;;
50531;SDS011;36483;37.396;-122.212;2022-12-07T15:55:14;4.30;;;2.30;;
50531;SDS011;36483;37.396;-122.212;2022-12-07T15:57:40;4.47;;;2.47;;
50531;SDS011;36483;37.396;-122.212;2022-12-07T16:00:07;4.63;;;2.40;;
50531;SDS011;36483;37.396;-122.212;2022-12-07T16:02:37;4.18;;;2.10;;
50531;SDS011;36483;37.396;-122.212;2022-12-07T16:05:03;3.17;;;2.10;;
50531;SDS011;36483;37.396;-122.212;2022-12-07T16:07:29;3.28;;;1.83;;
50531;SDS011;36483;37.396;-122.212;2022-12-07T16:09:55;4.25;;;2.30;;
50531;SDS011;36483;37.396;-122.212;2022-12-07T16:12:42;3.10;;;2.00;;
50531;SDS011;36483;37.396;-122.212;2022-12-07T16:15:08;4.18;;;1.88;;
50531;SDS011;36483;37.396;-122.212;2022-12-07T16:17:34;3.35;;;1.60;;
50531;SDS011;36483;37.396;-122.212;2022-12-07T16:20:00;2.67;;;1.90;;
50531;SDS011;36483;37.396;-122.212;2022-12-07T16:22:27;5.43;;;1.95;;
50531;SDS011;36483;37.396;-122.212;2022-12-07T16:24:53;2.88;;;1.77;;